Time;durP1;ratioP1;P1;durP2;ratioP2;P2;SDS_P1;SDS_P2;PMS_P1;PMS_P2;Temp;Humidity;BMP_temperature;BMP_pressure;BME280_temperature;BME280_humidity;BME280_pressure;Samples;Min_cycle;Max_cycle;Signal;HPM_P1;HPM_P2
2022/07/22 00:02:09;;;;;;;12.90;4.55;;;24.60;99.90;;;;;;5091679;28;20312;-83
2022/07/22 00:04:38;;;;;;;9.95;5.03;;;24.60;99.90;;;;;;5091725;28;20204;-83
2022/07/22 00:07:07;;;;;;;4.80;4.40;;;24.50;99.90;;;;;;5091938;28;20213;-83
2022/07/22 00:09:35;;;;;;;5.85;5.32;;;24.50;99.90;;;;;;5091533;28;20216;-83
2022/07/22 00:12:04;;;;;;;4.88;4.47;;;24.40;99.90;;;;;;5091530;28;20208;-83
2022/07/22 00:14:32;;;;;;;4.50;4.10;;;24.30;99.90;;;;;;5091365;28;20261;-82
2022/07/22 00:17:01;;;;;;;5.35;4.85;;;24.30;99.90;;;;;;5091016;28;20457;-83
2022/07/22 00:19:30;;;;;;;6.43;5.68;;;24.30;99.90;;;;;;5091051;28;20243;-83
2022/07/22 00:21:58;;;;;;;5.70;5.13;;;24.20;99.90;;;;;;5091300;28;20224;-83
2022/07/22 00:24:27;;;;;;;5.28;4.85;;;24.10;99.90;;;;;;5091090;28;20204;-83
2022/07/22 00:26:55;;;;;;;4.90;4.43;;;24.00;99.90;;;;;;5091430;28;20296;-83
2022/07/22 00:29:23;;;;;;;5.25;4.78;;;24.00;99.90;;;;;;5091022;28;20260;-83
2022/07/22 00:31:52;;;;;;;5.00;4.60;;;24.00;99.90;;;;;;5090595;28;20212;-83
2022/07/22 00:34:20;;;;;;;7.20;5.18;;;24.00;99.90;;;;;;5090805;28;20217;-83
2022/07/22 00:36:50;;;;;;;5.57;5.10;;;23.90;99.90;;;;;;5090168;28;20224;-83
2022/07/22 00:39:19;;;;;;;5.07;4.57;;;23.90;99.90;;;;;;5090395;28;20274;-83
2022/07/22 00:41:47;;;;;;;5.75;5.20;;;23.90;99.90;;;;;;5090942;28;20212;-82
2022/07/22 00:44:15;;;;;;;5.20;4.80;;;23.90;99.90;;;;;;5091014;28;20325;-83
2022/07/22 00:46:44;;;;;;;5.22;4.82;;;23.90;99.90;;;;;;5090605;28;20208;-82
2022/07/22 00:49:13;;;;;;;6.53;5.95;;;23.80;99.90;;;;;;5090077;28;20220;-83
2022/07/22 00:51:41;;;;;;;4.95;4.55;;;23.80;99.90;;;;;;5090819;28;20231;-83
2022/07/22 00:54:11;;;;;;;5.15;4.75;;;23.70;99.90;;;;;;5090945;28;20275;-83
2022/07/22 00:56:40;;;;;;;8.38;5.18;;;23.60;99.90;;;;;;5090753;28;20236;-83
2022/07/22 00:59:11;;;;;;;5.78;5.28;;;23.60;99.90;;;;;;5090173;28;20232;-82
2022/07/22 01:01:39;;;;;;;6.05;5.25;;;23.60;99.90;;;;;;5090826;28;20299;-83
2022/07/22 01:04:08;;;;;;;5.03;4.50;;;23.50;99.90;;;;;;5090661;28;20212;-82
2022/07/22 01:06:37;;;;;;;5.50;5.10;;;23.50;99.90;;;;;;5090630;28;20208;-83
2022/07/22 01:09:06;;;;;;;4.80;4.40;;;23.50;99.90;;;;;;5090553;28;20228;-83
2022/07/22 01:11:35;;;;;;;5.07;4.68;;;23.50;99.90;;;;;;5090643;28;20204;-82
2022/07/22 01:14:04;;;;;;;6.05;5.55;;;23.40;99.90;;;;;;5090279;28;20231;-83
2022/07/22 01:16:32;;;;;;;5.97;4.40;;;23.30;99.90;;;;;;5090407;28;20230;-82
2022/07/22 01:19:01;;;;;;;5.78;5.28;;;23.40;99.90;;;;;;5092317;28;20220;-85
2022/07/22 01:21:31;;;;;;;5.28;4.78;;;23.40;99.90;;;;;;5092701;28;20200;-83
2022/07/22 01:23:59;;;;;;;5.72;5.18;;;23.40;99.90;;;;;;5092312;28;20231;-82
2022/07/22 01:26:28;;;;;;;18.48;4.68;;;23.30;99.90;;;;;;5092571;28;20287;-82
2022/07/22 01:28:56;;;;;;;5.63;5.13;;;23.30;99.90;;;;;;5092090;28;20295;-83
2022/07/22 01:31:25;;;;;;;4.93;4.55;;;23.30;99.90;;;;;;5092363;28;20227;-83
2022/07/22 01:33:53;;;;;;;5.57;5.07;;;23.20;99.90;;;;;;5092299;28;20200;-83
2022/07/22 01:36:21;;;;;;;5.20;4.80;;;23.20;99.90;;;;;;5092515;28;20268;-82
2022/07/22 01:38:51;;;;;;;5.57;5.07;;;23.20;99.90;;;;;;5092061;28;20291;-82
2022/07/22 01:41:20;;;;;;;4.85;4.50;;;23.20;99.90;;;;;;5092326;28;20208;-82
2022/07/22 01:43:48;;;;;;;4.88;4.53;;;23.20;99.90;;;;;;5092275;28;20232;-83
2022/07/22 01:46:18;;;;;;;4.35;4.05;;;23.10;99.90;;;;;;5092217;28;20235;-83
2022/07/22 01:48:46;;;;;;;5.82;5.30;;;23.20;99.90;;;;;;5094603;28;20217;-82
2022/07/22 01:51:15;;;;;;;5.75;5.22;;;23.10;99.90;;;;;;5096414;28;20269;-83
2022/07/22 01:53:43;;;;;;;4.85;4.45;;;23.10;99.90;;;;;;5096121;28;20211;-82
2022/07/22 01:56:13;;;;;;;5.32;4.70;;;23.10;99.90;;;;;;5096078;28;20204;-82
2022/07/22 01:58:41;;;;;;;5.82;5.32;;;23.10;99.90;;;;;;5095623;28;20251;-83
2022/07/22 02:01:10;;;;;;;4.70;4.35;;;23.10;99.90;;;;;;5096109;28;20239;-83
2022/07/22 02:03:38;;;;;;;6.70;5.60;;;23.10;99.90;;;;;;5096190;28;20205;-83
2022/07/22 02:06:07;;;;;;;5.22;4.82;;;23.10;99.90;;;;;;5096134;28;20209;-82
2022/07/22 02:08:36;;;;;;;5.15;4.70;;;23.10;99.90;;;;;;5095999;28;20243;-83
2022/07/22 02:11:04;;;;;;;5.75;5.15;;;23.10;99.90;;;;;;5095944;28;20287;-83
2022/07/22 02:13:33;;;;;;;5.75;5.25;;;23.00;99.90;;;;;;5095830;28;20306;-82
2022/07/22 02:16:02;;;;;;;5.60;5.03;;;23.10;99.90;;;;;;5095779;28;20214;-82
2022/07/22 02:18:30;;;;;;;5.60;5.05;;;23.10;99.90;;;;;;5095390;28;20319;-83
2022/07/22 02:20:58;;;;;;;5.55;5.00;;;23.00;99.90;;;;;;5095807;28;20258;-82
2022/07/22 02:23:27;;;;;;;5.03;4.63;;;23.10;99.90;;;;;;5095115;28;20258;-82
2022/07/22 02:25:55;;;;;;;5.45;4.95;;;23.10;99.90;;;;;;5095413;28;20204;-83
2022/07/22 02:28:23;;;;;;;5.72;5.28;;;23.10;99.90;;;;;;5095030;28;20424;-82
2022/07/22 02:30:53;;;;;;;5.40;4.90;;;23.10;99.90;;;;;;5095394;28;20222;-83
2022/07/22 02:33:22;;;;;;;5.07;4.68;;;23.10;99.90;;;;;;5095388;28;20291;-83
2022/07/22 02:35:51;;;;;;;6.28;5.78;;;23.10;99.90;;;;;;5095201;28;20246;-82
2022/07/22 02:38:19;;;;;;;5.68;5.18;;;23.10;99.90;;;;;;5094848;28;20228;-83
2022/07/22 02:40:47;;;;;;;5.93;5.40;;;23.10;99.90;;;;;;5095219;28;20285;-82
2022/07/22 02:43:15;;;;;;;6.22;5.38;;;23.10;99.90;;;;;;5095318;28;20239;-82
2022/07/22 02:45:44;;;;;;;6.53;4.97;;;23.10;99.90;;;;;;5095427;28;20274;-82
2022/07/22 02:48:13;;;;;;;9.95;5.60;;;23.10;99.90;;;;;;5095159;28;20220;-82
2022/07/22 02:50:46;;;;;;;5.85;5.35;;;23.00;99.90;;;;;;5094821;28;20294;-82
2022/07/22 02:53:15;;;;;;;5.32;4.82;;;23.00;99.90;;;;;;5094856;28;20212;-83
2022/07/22 02:55:43;;;;;;;6.00;5.40;;;23.00;99.90;;;;;;5095058;28;20228;-83
2022/07/22 02:58:12;;;;;;;5.55;4.85;;;23.10;99.90;;;;;;5094926;28;20278;-83
2022/07/22 03:00:40;;;;;;;6.13;5.47;;;23.10;99.90;;;;;;5094902;28;20204;-82
2022/07/22 03:03:09;;;;;;;5.72;5.28;;;23.00;99.90;;;;;;5094796;28;20218;-83
2022/07/22 03:05:39;;;;;;;6.03;5.53;;;23.00;99.90;;;;;;5094989;28;20200;-82
2022/07/22 03:08:07;;;;;;;6.35;5.70;;;22.90;99.90;;;;;;5094816;28;20232;-86
2022/07/22 03:10:35;;;;;;;6.30;5.80;;;22.90;99.90;;;;;;5094443;28;20228;-86
2022/07/22 03:13:04;;;;;;;5.28;4.88;;;22.90;99.90;;;;;;5094791;28;20296;-86
2022/07/22 03:15:32;;;;;;;6.55;5.50;;;22.90;99.90;;;;;;5094539;28;20287;-86
2022/07/22 03:18:00;;;;;;;5.40;4.25;;;22.90;99.90;;;;;;5094453;28;20236;-86
2022/07/22 03:20:28;;;;;;;5.50;5.03;;;22.90;99.90;;;;;;5094292;28;20284;-86
2022/07/22 03:22:58;;;;;;;6.28;5.43;;;22.80;99.90;;;;;;5094412;28;20250;-86
2022/07/22 03:25:27;;;;;;;6.72;5.32;;;22.90;99.90;;;;;;5094256;28;20205;-86
2022/07/22 03:27:55;;;;;;;6.65;6.03;;;22.80;99.90;;;;;;5094340;28;20249;-87
2022/07/22 03:30:23;;;;;;;5.57;5.03;;;22.80;99.90;;;;;;5093730;28;20231;-86
2022/07/22 03:32:52;;;;;;;6.18;5.78;;;22.80;99.90;;;;;;5094158;28;20295;-86
2022/07/22 03:35:21;;;;;;;5.18;4.78;;;22.80;99.90;;;;;;5094087;28;20208;-86
2022/07/22 03:37:49;;;;;;;6.15;5.55;;;22.80;99.90;;;;;;5094060;28;20207;-86
2022/07/22 03:40:19;;;;;;;5.68;5.18;;;22.80;99.90;;;;;;5093565;28;20301;-86
2022/07/22 03:42:47;;;;;;;7.13;5.38;;;22.80;99.90;;;;;;5094103;28;20204;-86
2022/07/22 03:45:16;;;;;;;6.65;5.72;;;22.80;99.90;;;;;;5094045;28;20239;-87
2022/07/22 03:47:44;;;;;;;9.07;5.82;;;22.80;99.90;;;;;;5093821;28;20213;-86
2022/07/22 03:50:12;;;;;;;5.95;4.97;;;22.80;99.90;;;;;;5093663;28;20204;-83
2022/07/22 03:52:41;;;;;;;7.20;5.53;;;22.90;99.90;;;;;;5094108;28;20285;-83
2022/07/22 03:55:09;;;;;;;6.57;5.95;;;22.90;99.90;;;;;;5094034;28;20208;-82
2022/07/22 03:57:39;;;;;;;5.47;4.95;;;22.90;99.90;;;;;;5093820;28;20212;-83
2022/07/22 04:00:09;;;;;;;10.52;5.65;;;22.90;99.90;;;;;;5093401;28;20312;-83
2022/07/22 04:02:37;;;;;;;5.75;5.25;;;22.90;99.90;;;;;;5093614;28;20235;-82
2022/07/22 04:05:06;;;;;;;5.82;5.35;;;22.90;99.90;;;;;;5093706;28;20215;-83
2022/07/22 04:07:34;;;;;;;5.80;5.38;;;23.00;99.90;;;;;;5093743;28;20277;-82
2022/07/22 04:10:05;;;;;;;6.50;5.28;;;23.00;99.90;;;;;;5093052;28;20233;-83
2022/07/22 04:12:35;;;;;;;6.05;5.53;;;23.10;99.90;;;;;;5093630;28;20203;-82
2022/07/22 04:15:09;;;;;;;6.20;5.70;;;23.10;99.90;;;;;;5093431;28;20303;-83
2022/07/22 04:17:37;;;;;;;5.88;5.43;;;23.10;99.90;;;;;;5093545;28;20284;-86
2022/07/22 04:20:07;;;;;;;6.35;5.60;;;23.20;99.90;;;;;;5100194;22;20228;-93
2022/07/22 04:22:35;;;;;;;6.90;6.22;;;23.20;99.90;;;;;;5073403;28;20273;-93
2022/07/22 04:25:04;;;;;;;6.13;5.22;;;23.20;99.90;;;;;;5072789;28;20205;-93
2022/07/22 04:27:33;;;;;;;5.75;5.22;;;23.20;99.90;;;;;;5073253;28;20262;-94
2022/07/22 04:30:01;;;;;;;6.57;6.00;;;23.20;99.90;;;;;;5072557;28;20247;-94
2022/07/22 04:32:31;;;;;;;6.13;5.63;;;23.20;99.90;;;;;;5072774;28;20274;-94
2022/07/22 04:34:59;;;;;;;5.65;5.15;;;23.20;99.90;;;;;;5072904;28;20296;-94
2022/07/22 04:37:27;;;;;;;9.30;5.50;;;23.30;99.90;;;;;;5072769;28;20288;-94
2022/07/22 04:39:56;;;;;;;7.75;5.55;;;23.30;99.90;;;;;;5072108;28;20225;-94
2022/07/22 04:42:24;;;;;;;5.10;4.70;;;23.30;99.90;;;;;;5072787;28;20205;-94
2022/07/22 04:44:52;;;;;;;6.68;5.63;;;23.30;99.90;;;;;;5072769;28;20247;-93
2022/07/22 04:47:21;;;;;;;5.45;4.97;;;23.20;99.90;;;;;;5072571;28;20236;-94
2022/07/22 04:49:50;;;;;;;5.85;5.32;;;23.30;99.90;;;;;;5072128;28;20220;-94
2022/07/22 04:52:19;;;;;;;5.97;5.40;;;23.30;99.90;;;;;;5072612;28;20281;-94
2022/07/22 04:54:48;;;;;;;6.30;5.80;;;23.30;99.90;;;;;;5072731;28;20208;-94
2022/07/22 04:57:17;;;;;;;7.72;5.47;;;23.30;99.90;;;;;;5072673;28;20208;-94
2022/07/22 04:59:45;;;;;;;5.93;5.32;;;23.40;99.90;;;;;;5072147;28;20274;-94
2022/07/22 05:02:14;;;;;;;5.82;5.30;;;23.40;99.90;;;;;;5072590;28;20258;-95
2022/07/22 05:04:42;;;;;;;5.53;5.00;;;23.40;99.90;;;;;;5072452;28;20259;-94
2022/07/22 05:07:12;;;;;;;6.13;5.63;;;23.40;99.90;;;;;;5072439;28;20205;-94
2022/07/22 05:09:41;;;;;;;8.15;5.68;;;23.50;99.90;;;;;;5072254;28;20308;-94
2022/07/22 05:12:09;;;;;;;6.53;5.55;;;23.50;99.90;;;;;;5072669;28;20205;-95
2022/07/22 05:14:38;;;;;;;4.72;4.43;;;23.60;99.90;;;;;;5072709;28;20232;-94
2022/07/22 05:17:10;;;;;;;6.63;5.70;;;23.60;99.90;;;;;;5072355;28;20201;-94
2022/07/22 05:19:43;;;;;;;6.40;5.80;;;23.60;99.90;;;;;;5071920;28;20232;-94
2022/07/22 05:22:12;;;;;;;5.78;5.28;;;23.70;99.90;;;;;;5073981;28;20201;-94
2022/07/22 05:24:41;;;;;;;6.15;5.55;;;23.70;99.90;;;;;;5076214;28;20290;-94
2022/07/22 05:27:09;;;;;;;6.10;5.60;;;23.80;99.90;;;;;;5076613;28;20287;-94
2022/07/22 05:29:37;;;;;;;7.03;6.20;;;23.80;99.90;;;;;;5076140;28;20241;-95
2022/07/22 05:32:06;;;;;;;6.22;5.72;;;23.80;99.90;;;;;;5076226;28;20216;-94
2022/07/22 05:34:34;;;;;;;5.15;4.75;;;23.80;99.90;;;;;;5076020;28;20229;-94
2022/07/22 05:37:03;;;;;;;7.80;5.68;;;23.90;99.90;;;;;;5076171;28;20209;-94
2022/07/22 05:39:33;;;;;;;5.45;4.95;;;23.90;99.90;;;;;;5075695;28;20228;-93
2022/07/22 05:42:02;;;;;;;5.97;5.43;;;23.90;99.90;;;;;;5076311;28;20212;-94
2022/07/22 05:44:30;;;;;;;6.40;5.88;;;24.00;99.90;;;;;;5075868;28;20213;-93
2022/07/22 05:46:58;;;;;;;5.75;5.25;;;24.00;99.90;;;;;;5075839;28;20205;-94
2022/07/22 05:49:27;;;;;;;6.57;5.97;;;24.10;99.90;;;;;;5075594;28;20315;-94
2022/07/22 05:51:57;;;;;;;5.05;4.72;;;24.10;99.90;;;;;;5075732;28;20219;-94
2022/07/22 05:54:26;;;;;;;6.25;5.78;;;24.20;99.90;;;;;;5075754;28;20236;-93
2022/07/22 05:56:56;;;;;;;5.25;4.85;;;24.20;99.90;;;;;;5075913;28;20213;-93
2022/07/22 05:59:24;;;;;;;5.35;4.85;;;24.30;99.90;;;;;;5075607;28;20268;-93
2022/07/22 06:01:53;;;;;;;6.82;5.05;;;24.40;99.90;;;;;;5075511;28;20217;-93
2022/07/22 06:04:21;;;;;;;6.63;5.28;;;24.50;99.90;;;;;;5075632;28;20217;-94
2022/07/22 06:06:50;;;;;;;5.90;5.28;;;24.50;99.90;;;;;;5075686;28;20205;-93
2022/07/22 06:09:18;;;;;;;6.20;5.05;;;24.60;99.90;;;;;;5075383;28;20224;-94
2022/07/22 06:11:47;;;;;;;5.38;4.75;;;24.70;99.90;;;;;;5075559;28;20213;-94
2022/07/22 06:14:16;;;;;;;5.68;5.18;;;24.70;99.90;;;;;;5075384;28;20205;-94
2022/07/22 06:16:50;;;;;;;6.03;5.53;;;24.80;99.90;;;;;;5075401;28;20287;-94
2022/07/22 06:19:18;;;;;;;5.50;5.00;;;24.90;99.90;;;;;;5075063;28;20297;-93
2022/07/22 06:21:47;;;;;;;5.65;5.15;;;25.00;99.90;;;;;;5075085;28;20249;-93
2022/07/22 06:24:15;;;;;;;5.22;4.72;;;25.10;99.90;;;;;;5075655;28;20200;-93
2022/07/22 06:26:44;;;;;;;6.10;5.40;;;25.20;99.90;;;;;;5075478;28;20235;-93
2022/07/22 06:29:12;;;;;;;5.30;4.90;;;25.30;99.90;;;;;;5074852;28;20278;-93
2022/07/22 06:31:42;;;;;;;5.75;4.93;;;25.40;99.90;;;;;;5075015;28;20201;-93
2022/07/22 06:34:10;;;;;;;5.20;4.80;;;25.50;99.90;;;;;;5074167;28;20282;-93
2022/07/22 06:36:39;;;;;;;5.70;5.20;;;25.60;99.90;;;;;;5075366;28;20201;-94
2022/07/22 06:39:07;;;;;;;4.90;4.50;;;25.70;99.90;;;;;;5074598;28;20226;-93
2022/07/22 06:41:35;;;;;;;9.48;5.55;;;25.80;99.90;;;;;;5074563;28;20252;-94
2022/07/22 06:44:04;;;;;;;5.40;4.90;;;25.90;99.90;;;;;;5074863;28;20232;-94
2022/07/22 06:46:32;;;;;;;5.32;4.93;;;26.00;99.90;;;;;;5074962;28;20294;-93
2022/07/22 06:49:02;;;;;;;5.68;4.78;;;26.00;99.90;;;;;;5074843;28;20229;-94
2022/07/22 06:51:31;;;;;;;14.20;5.45;;;26.20;99.90;;;;;;5077537;28;20284;-93
2022/07/22 06:53:59;;;;;;;5.32;4.82;;;26.30;99.90;;;;;;5081047;28;20235;-93
2022/07/22 06:56:27;;;;;;;5.18;4.70;;;26.40;99.90;;;;;;5082216;28;20205;-93
2022/07/22 06:58:55;;;;;;;4.57;4.18;;;26.40;99.90;;;;;;5077798;28;20221;-94
2022/07/22 07:01:24;;;;;;;6.90;5.45;;;26.60;99.90;;;;;;5075176;28;20312;-94
2022/07/22 07:03:53;;;;;;;5.10;4.70;;;26.80;99.90;;;;;;5074766;28;20209;-94
2022/07/22 07:06:23;;;;;;;5.05;4.65;;;27.00;99.90;;;;;;5074706;28;20247;-94
2022/07/22 07:08:51;;;;;;;5.60;5.10;;;27.10;99.90;;;;;;5074215;28;20294;-94
2022/07/22 07:11:20;;;;;;;5.70;5.20;;;27.30;99.90;;;;;;5074313;28;20200;-94
2022/07/22 07:13:48;;;;;;;9.32;5.60;;;27.50;99.90;;;;;;5074500;28;20197;-93
2022/07/22 07:16:17;;;;;;;5.10;4.70;;;27.70;99.90;;;;;;5074255;28;20205;-93
2022/07/22 07:18:45;;;;;;;6.22;5.72;;;27.90;99.90;;;;;;5074182;28;20228;-94
2022/07/22 07:21:14;;;;;;;5.13;4.63;;;28.20;99.90;;;;;;5073087;28;20221;-95
2022/07/22 07:23:44;;;;;;;5.55;4.85;;;28.50;99.90;;;;;;5062858;28;20228;-94
2022/07/22 07:26:13;;;;;;;4.78;4.38;;;28.60;99.90;;;;;;5074734;28;20197;-82
2022/07/22 07:28:41;;;;;;;5.20;4.70;;;29.00;99.90;;;;;;5074222;28;20229;-84
2022/07/22 07:31:10;;;;;;;5.53;4.50;;;29.50;99.10;;;;;;5067863;28;20202;-79
2022/07/22 07:33:38;;;;;;;6.10;5.53;;;30.20;98.20;;;;;;5054553;28;20210;-77
2022/07/22 07:36:07;;;;;;;5.50;4.78;;;30.90;96.30;;;;;;5073098;28;20225;-77
2022/07/22 07:38:35;;;;;;;5.88;5.35;;;31.80;94.60;;;;;;5073573;28;20229;-81
2022/07/22 07:41:06;;;;;;;5.03;4.63;;;32.50;92.80;;;;;;5074703;28;20255;-84
2022/07/22 07:43:34;;;;;;;6.68;4.80;;;33.40;91.00;;;;;;5074228;28;20264;-81
2022/07/22 07:46:03;;;;;;;5.60;5.20;;;34.20;87.70;;;;;;5073161;28;20208;-81
2022/07/22 07:48:31;;;;;;;6.30;5.70;;;34.60;83.60;;;;;;5054020;28;20295;-84
2022/07/22 07:51:00;;;;;;;4.63;4.32;;;;;;;;;;5060012;28;20227;-81
2022/07/22 07:53:28;;;;;;;4.82;4.53;;;35.80;78.60;;;;;;5074191;28;20209;-80
2022/07/22 07:55:56;;;;;;;4.95;4.57;;;36.80;78.80;;;;;;5074090;28;20223;-93
2022/07/22 07:58:27;;;;;;;5.32;4.82;;;36.80;76.70;;;;;;5073871;28;20219;-80
2022/07/22 08:00:55;;;;;;;4.68;4.28;;;37.10;73.30;;;;;;5074088;28;20219;-79
2022/07/22 08:03:26;;;;;;;5.00;4.60;;;37.60;72.60;;;;;;5074119;28;20238;-80
2022/07/22 08:05:55;;;;;;;4.38;3.90;;;38.50;70.80;;;;;;5073975;28;20209;-92
2022/07/22 08:08:24;;;;;;;4.78;4.38;;;39.50;66.90;;;;;;5073761;28;20220;-94
2022/07/22 08:11:30;;;;;;;4.65;4.25;;;40.10;63.30;;;;;;5079976;28;20231;-93
2022/07/22 08:14:00;;;;;;;4.10;3.80;;;39.70;62.10;;;;;;5077832;28;20257;-94
2022/07/22 08:16:28;;;;;;;6.07;5.00;;;40.40;61.20;;;;;;5074102;28;20203;-93
2022/07/22 08:18:57;;;;;;;4.47;4.18;;;40.80;59.70;;;;;;5089798;28;20254;-93
2022/07/22 08:21:26;;;;;;;4.25;3.85;;;41.10;60.00;;;;;;5093116;28;20303;-93
2022/07/22 08:23:55;;;;;;;4.15;3.85;;;41.60;61.50;;;;;;5087356;28;20200;-93
2022/07/22 08:26:23;;;;;;;4.05;3.75;;;42.00;58.50;;;;;;5073366;28;20239;-94
2022/07/22 08:29:00;;;;;;;4.10;3.80;;;42.50;58.00;;;;;;5073846;28;20232;-94
2022/07/22 08:31:31;;;;;;;4.00;3.70;;;;;;;;;;5073469;28;20184;-94
2022/07/22 08:34:00;;;;;;;4.13;3.83;;;43.20;52.90;;;;;;5073380;28;20204;-94
2022/07/22 08:36:28;;;;;;;3.80;3.60;;;43.30;52.40;;;;;;5073435;28;20234;-94
2022/07/22 08:38:57;;;;;;;4.00;3.70;;;43.20;53.40;;;;;;5073123;28;20313;-94
2022/07/22 08:41:27;;;;;;;5.63;4.38;;;42.60;52.90;;;;;;5072992;28;20303;-94
2022/07/22 08:43:56;;;;;;;4.50;4.10;;;43.00;53.10;;;;;;5073397;28;20201;-92
2022/07/22 08:46:27;;;;;;;4.03;3.75;;;43.00;51.60;;;;;;5073125;28;20266;-93
2022/07/22 08:48:56;;;;;;;4.13;3.83;;;43.10;53.70;;;;;;5073110;28;20232;-93
2022/07/22 08:51:25;;;;;;;4.43;3.95;;;43.60;51.10;;;;;;5073046;28;20260;-81
2022/07/22 08:53:53;;;;;;;3.72;3.53;;;41.70;49.70;;;;;;5073047;28;20283;-81
2022/07/22 08:56:22;;;;;;;4.53;4.13;;;41.90;51.40;;;;;;5073042;28;20204;-94
2022/07/22 08:58:50;;;;;;;4.25;3.95;;;41.90;54.10;;;;;;5073377;28;20262;-94
2022/07/22 09:01:19;;;;;;;4.03;3.63;;;41.90;50.60;;;;;;5073105;28;20235;-93
2022/07/22 09:03:51;;;;;;;4.38;4.07;;;42.10;52.80;;;;;;5072993;28;20225;-95
2022/07/22 09:06:21;;;;;;;4.47;3.83;;;42.30;52.60;;;;;;5072988;28;20201;-95
2022/07/22 09:08:56;;;;;;;3.80;3.50;;;42.70;49.10;;;;;;5072434;28;20266;-96
2022/07/22 09:11:28;;;;;;;4.35;4.05;;;43.00;54.20;;;;;;5073212;28;20292;-95
2022/07/22 09:13:57;;;;;;;8.73;3.85;;;43.30;51.20;;;;;;5068068;28;20205;-96
2022/07/22 09:16:42;;;;;;;3.83;3.53;;;43.50;49.60;;;;;;5067097;28;20295;-96
2022/07/22 09:19:13;;;;;;;3.95;3.65;;;43.80;51.50;;;;;;5070761;28;20263;-96
2022/07/22 09:21:44;;;;;;;4.05;3.60;;;43.90;51.20;;;;;;5073222;28;20208;-96
2022/07/22 09:24:28;;;;;;;4.60;4.30;;;43.30;49.70;;;;;;5072791;28;20197;-96
2022/07/22 09:26:57;;;;;;;3.20;3.00;;;43.50;50.50;;;;;;5072973;28;20232;-96
2022/07/22 09:29:26;;;;;;;3.58;3.30;;;43.40;47.70;;;;;;5073183;28;20246;-96
2022/07/22 09:32:04;;;;;;;3.80;3.50;;;43.20;48.90;;;;;;5072728;28;20210;-96
2022/07/22 09:34:35;;;;;;;3.35;3.15;;;43.50;47.00;;;;;;5072321;28;20204;-96
2022/07/22 09:37:03;;;;;;;3.63;3.33;;;43.50;49.90;;;;;;5072674;28;20257;-96
2022/07/22 09:39:33;;;;;;;3.92;3.55;;;43.50;47.00;;;;;;5072073;28;20303;-96
2022/07/22 09:42:04;;;;;;;3.65;3.35;;;43.30;46.70;;;;;;5072373;28;20231;-96
2022/07/22 09:44:33;;;;;;;3.15;2.95;;;42.60;46.40;;;;;;5072581;28;20254;-96
2022/07/22 09:47:01;;;;;;;3.50;3.30;;;42.50;49.30;;;;;;5073160;28;20258;-96
2022/07/22 09:49:37;;;;;;;3.63;3.38;;;42.70;47.90;;;;;;5072520;28;20229;-95
2022/07/22 09:52:05;;;;;;;4.65;4.35;;;42.80;47.80;;;;;;5072631;28;20234;-96
2022/07/22 09:54:34;;;;;;;3.53;3.25;;;42.30;50.90;;;;;;5072530;28;20250;-95
2022/07/22 09:57:03;;;;;;;3.70;3.35;;;42.40;50.10;;;;;;5072852;28;20200;-96
2022/07/22 09:59:31;;;;;;;4.68;4.18;;;42.50;51.60;;;;;;5072381;28;20243;-96
2022/07/22 10:02:04;;;;;;;4.18;3.88;;;42.90;51.70;;;;;;5072670;28;20299;-95
2022/07/22 10:04:37;;;;;;;3.88;3.58;;;43.10;48.70;;;;;;5072325;28;20236;-95
2022/07/22 10:07:05;;;;;;;4.68;4.28;;;43.30;51.00;;;;;;5072364;28;20228;-96
2022/07/22 10:09:35;;;;;;;3.80;3.50;;;43.60;47.10;;;;;;5074453;28;20247;-96
2022/07/22 10:12:04;;;;;;;3.53;3.22;;;43.50;48.10;;;;;;5076289;28;20267;-95
2022/07/22 10:14:33;;;;;;;3.90;3.70;;;43.40;46.70;;;;;;5075306;28;20235;-96
2022/07/22 10:17:02;;;;;;;3.30;3.10;;;42.60;46.40;;;;;;5056198;28;20209;-96
2022/07/22 10:19:36;;;;;;;3.58;2.75;;;42.70;46.20;;;;;;5098930;22;20263;-83
2022/07/22 10:22:05;;;;;;;3.55;3.25;;;42.50;45.50;;;;;;5087808;28;20321;-82
2022/07/22 10:24:33;;;;;;;4.28;3.95;;;42.60;49.50;;;;;;5096192;28;20235;-82
2022/07/22 10:27:01;;;;;;;4.85;3.17;;;42.60;48.40;;;;;;5095014;28;20200;-83
2022/07/22 10:29:31;;;;;;;3.40;3.10;;;42.60;46.20;;;;;;5076049;28;20213;-82
2022/07/22 10:32:27;;;;;;;4.38;4.07;;;43.10;47.80;;;;;;5075621;28;20235;-82
2022/07/22 10:35:25;;;;;;;3.75;3.55;;;43.40;45.80;;;;;;5076173;28;20296;-82
2022/07/22 10:37:57;;;;;;;3.88;3.53;;;43.40;46.90;;;;;;5075836;28;20284;-82
2022/07/22 10:40:28;;;;;;;3.67;3.47;;;43.30;47.50;;;;;;5075571;28;20284;-82
2022/07/22 10:43:12;;;;;;;4.13;3.72;;;43.30;44.00;;;;;;5075657;28;20271;-82
2022/07/22 10:45:45;;;;;;;3.85;3.47;;;42.70;46.70;;;;;;5084839;28;20232;-82
2022/07/22 10:48:23;;;;;;;3.55;3.35;;;42.70;43.70;;;;;;5095607;28;20207;-82
2022/07/22 10:50:56;;;;;;;3.97;3.70;;;42.40;44.60;;;;;;5096159;28;20202;-82
2022/07/22 10:53:39;;;;;;;3.85;3.55;;;42.20;46.30;;;;;;5095616;28;20282;-83
2022/07/22 10:56:13;;;;;;;4.10;3.70;;;42.20;44.60;;;;;;5095724;28;20195;-82
2022/07/22 10:58:47;;;;;;;4.00;3.70;;;42.00;45.40;;;;;;5095464;28;20195;-82
2022/07/22 11:01:18;;;;;;;5.15;3.97;;;41.90;44.10;;;;;;5095741;28;20274;-93
2022/07/22 11:03:49;;;;;;;5.57;4.43;;;42.00;44.10;;;;;;5095293;28;20220;-82
2022/07/22 11:06:31;;;;;;;3.75;3.47;;;41.70;45.80;;;;;;5095983;28;20204;-82
2022/07/22 11:09:02;;;;;;;4.32;4.03;;;41.90;45.90;;;;;;5095070;28;20298;-82
2022/07/22 11:11:42;;;;;;;4.18;3.88;;;42.00;44.60;;;;;;5095309;28;20200;-82
2022/07/22 11:14:19;;;;;;;5.28;4.72;;;41.60;46.20;;;;;;5094958;28;20214;-82
2022/07/22 11:16:50;;;;;;;3.88;3.53;;;41.60;47.10;;;;;;5095246;28;20246;-82
2022/07/22 11:19:24;;;;;;;3.78;3.47;;;41.90;47.10;;;;;;5094594;28;20235;-82
2022/07/22 11:21:56;;;;;;;4.07;3.78;;;41.90;46.80;;;;;;5095225;28;20291;-82
2022/07/22 11:24:25;;;;;;;3.90;3.60;;;42.00;46.60;;;;;;5094528;28;20275;-82
2022/07/22 11:26:55;;;;;;;5.00;3.90;;;42.10;45.00;;;;;;5094813;28;20208;-82
2022/07/22 11:29:34;;;;;;;3.80;3.50;;;42.30;46.30;;;;;;5094938;28;20292;-82
2022/07/22 11:32:04;;;;;;;4.18;3.88;;;42.80;44.40;;;;;;5094957;28;20227;-82
2022/07/22 11:34:32;;;;;;;4.85;3.85;;;43.10;46.20;;;;;;5094903;28;20208;-81
2022/07/22 11:37:02;;;;;;;3.95;3.65;;;43.30;45.10;;;;;;5094259;28;20196;-81
2022/07/22 11:39:32;;;;;;;3.50;3.20;;;43.60;44.20;;;;;;5094517;28;20287;-83
2022/07/22 11:42:01;;;;;;;3.85;3.55;;;43.80;45.10;;;;;;5094475;28;20284;-85
2022/07/22 11:44:32;;;;;;;3.63;3.33;;;44.10;44.50;;;;;;5094249;28;20307;-81
2022/07/22 11:47:01;;;;;;;4.75;4.00;;;44.00;44.20;;;;;;5094541;28;20200;-81
2022/07/22 11:49:33;;;;;;;4.13;3.83;;;44.10;43.00;;;;;;5094390;28;20266;-85
2022/07/22 11:52:04;;;;;;;4.30;3.53;;;44.20;42.50;;;;;;5094552;28;20283;-85
2022/07/22 11:54:35;;;;;;;4.18;3.78;;;43.60;41.50;;;;;;5094204;28;20196;-86
2022/07/22 11:57:04;;;;;;;4.55;4.13;;;43.50;43.40;;;;;;5094079;28;20282;-86
2022/07/22 11:59:33;;;;;;;3.72;3.53;;;42.60;44.10;;;;;;5094449;28;20261;-86
2022/07/22 12:02:03;;;;;;;4.20;3.90;;;42.50;42.90;;;;;;5094392;28;20200;-87
2022/07/22 12:04:33;;;;;;;4.13;3.45;;;42.40;42.70;;;;;;5073799;28;20303;-86
2022/07/22 12:07:04;;;;;;;3.15;2.95;;;42.20;44.80;;;;;;5073568;28;20212;-86
2022/07/22 12:09:35;;;;;;;3.88;3.67;;;42.30;45.30;;;;;;5073471;28;20220;-86
2022/07/22 12:12:04;;;;;;;4.80;4.40;;;42.70;43.60;;;;;;5073891;28;20325;-86
2022/07/22 12:14:34;;;;;;;5.30;4.68;;;42.60;42.10;;;;;;5073830;28;20196;-86
2022/07/22 12:17:04;;;;;;;4.10;3.80;;;42.60;42.30;;;;;;5076022;28;20224;-86
2022/07/22 12:19:34;;;;;;;4.05;3.65;;;42.60;43.00;;;;;;5093638;28;20235;-86
2022/07/22 12:22:06;;;;;;;4.00;3.70;;;42.50;45.20;;;;;;5093900;28;20341;-86
2022/07/22 12:24:35;;;;;;;4.05;3.75;;;42.60;45.20;;;;;;5093252;28;20315;-86
2022/07/22 12:27:06;;;;;;;4.57;4.18;;;42.70;44.10;;;;;;5093922;28;20235;-86
2022/07/22 12:29:43;;;;;;;4.55;4.15;;;42.70;44.00;;;;;;5073110;28;20330;-86
2022/07/22 12:32:16;;;;;;;4.15;3.85;;;42.90;44.20;;;;;;5077839;28;20277;-86
2022/07/22 12:34:47;;;;;;;5.07;4.57;;;42.90;43.50;;;;;;5093765;28;20192;-87
2022/07/22 12:37:22;;;;;;;4.65;4.25;;;42.80;46.00;;;;;;5093483;28;20278;-88
2022/07/22 12:39:58;;;;;;;4.25;3.95;;;42.60;44.50;;;;;;5093242;28;20286;-86
2022/07/22 12:42:37;;;;;;;4.47;3.92;;;42.70;44.50;;;;;;5093518;28;20207;-86
2022/07/22 12:45:07;;;;;;;4.85;4.43;;;42.80;44.10;;;;;;5093033;28;20226;-86
2022/07/22 12:47:45;;;;;;;7.63;4.70;;;42.80;43.60;;;;;;5093092;28;20224;-85
2022/07/22 12:50:18;;;;;;;5.05;4.55;;;42.20;43.40;;;;;;5092433;28;20215;-85
2022/07/22 12:52:49;;;;;;;4.82;4.47;;;41.70;44.10;;;;;;5093107;28;20204;-85
2022/07/22 12:55:39;;;;;;;4.15;3.85;;;40.60;43.40;;;;;;5093325;28;20295;-85
2022/07/22 12:58:09;;;;;;;4.68;4.38;;;40.70;46.20;;;;;;5107034;28;20221;-85
2022/07/22 13:00:39;;;;;;;4.38;4.07;;;40.70;45.10;;;;;;5113375;28;20250;-85
2022/07/22 13:03:09;;;;;;;4.75;3.75;;;40.90;45.10;;;;;;5099596;28;20222;-86